createdAt,value
2019-01-29T00:00:29.721Z,17.10
2019-01-29T00:01:31.041Z,17.11
2019-01-29T00:02:32.288Z,17.10
2019-01-29T00:03:33.514Z,17.10
2019-01-29T00:04:34.627Z,17.09
2019-01-29T00:05:35.740Z,17.09
2019-01-29T00:06:36.852Z,17.08
2019-01-29T00:07:37.975Z,17.07
2019-01-29T00:08:39.088Z,17.08
2019-01-29T00:09:40.199Z,17.07
2019-01-29T00:10:41.318Z,17.06
2019-01-29T00:11:42.427Z,17.07
2019-01-29T00:12:43.555Z,17.06
2019-01-29T00:13:44.668Z,17.06
2019-01-29T00:14:45.785Z,17.06
2019-01-29T00:15:46.892Z,17.06
2019-01-29T00:16:48.001Z,17.06
2019-01-29T00:17:49.149Z,17.06
2019-01-29T00:18:50.260Z,17.05
2019-01-29T00:19:51.379Z,17.06
2019-01-29T00:20:52.494Z,17.05
2019-01-29T00:21:53.713Z,17.06
2019-01-29T00:22:54.837Z,17.06
2019-01-29T00:23:55.951Z,17.05
2019-01-29T00:24:57.064Z,17.05
2019-01-29T00:25:58.193Z,17.04
2019-01-29T00:26:59.308Z,17.05
2019-01-29T00:28:00.429Z,17.04
2019-01-29T00:29:01.544Z,17.05
2019-01-29T00:30:06.260Z,17.03
2019-01-29T00:31:07.377Z,17.03
2019-01-29T00:32:08.491Z,17.03
2019-01-29T00:33:09.682Z,17.03
2019-01-29T00:34:10.836Z,17.02
2019-01-29T00:35:12.448Z,17.02
2019-01-29T00:36:13.668Z,17.02
2019-01-29T00:37:14.781Z,17.03
2019-01-29T00:38:16.012Z,17.01
2019-01-29T00:39:17.130Z,17.02
2019-01-29T00:40:18.232Z,17.01
2019-01-29T00:41:19.346Z,17.02
2019-01-29T00:42:20.453Z,17.01
2019-01-29T00:43:21.604Z,17.00
2019-01-29T00:44:22.742Z,17.00
2019-01-29T00:45:23.856Z,17.00
2019-01-29T00:46:24.964Z,17.01
2019-01-29T00:47:26.081Z,16.99
2019-01-29T00:48:27.356Z,16.99
2019-01-29T00:49:28.613Z,16.99
2019-01-29T00:50:29.677Z,17.00
2019-01-29T00:51:31.337Z,16.98
2019-01-29T00:52:32.432Z,16.99
2019-01-29T00:53:33.598Z,16.98
2019-01-29T00:54:34.719Z,16.99
2019-01-29T00:55:35.933Z,16.98
2019-01-29T00:56:37.047Z,16.97
2019-01-29T00:57:38.153Z,16.97
2019-01-29T00:58:39.410Z,16.96
2019-01-29T00:59:40.529Z,16.97
2019-01-29T01:00:41.775Z,16.96
2019-01-29T01:01:42.988Z,16.95
2019-01-29T01:02:44.406Z,16.95
2019-01-29T01:03:45.540Z,16.95
2019-01-29T01:04:46.756Z,16.96
2019-01-29T01:05:47.969Z,16.95
2019-01-29T01:06:49.180Z,16.95
2019-01-29T01:07:50.299Z,16.94
2019-01-29T01:08:51.527Z,16.94
2019-01-29T01:09:57.256Z,16.94
2019-01-29T01:10:55.756Z,16.93
2019-01-29T01:11:56.876Z,16.93
2019-01-29T01:12:57.991Z,16.94
2019-01-29T01:13:59.116Z,16.92
2019-01-29T01:15:00.238Z,16.93
2019-01-29T01:16:01.333Z,16.91
2019-01-29T01:17:02.546Z,16.92
2019-01-29T01:18:03.756Z,16.91
2019-01-29T01:19:04.877Z,16.91
2019-01-29T01:20:09.592Z,16.92
2019-01-29T01:21:10.708Z,16.92
2019-01-29T01:22:11.921Z,16.92
2019-01-29T01:23:13.037Z,16.92
2019-01-29T01:24:14.264Z,16.92
2019-01-29T01:25:15.673Z,16.92
2019-01-29T01:26:16.785Z,16.91
2019-01-29T01:27:17.897Z,16.92
2019-01-29T01:28:19.010Z,16.92
2019-01-29T01:29:20.277Z,16.90
2019-01-29T01:30:21.348Z,16.91
2019-01-29T01:31:22.456Z,16.90
2019-01-29T01:32:23.574Z,16.89
2019-01-29T01:33:24.690Z,16.90
2019-01-29T01:34:25.844Z,16.90
2019-01-29T01:35:27.060Z,16.89
2019-01-29T01:36:28.282Z,16.89
2019-01-29T01:37:29.388Z,16.88
2019-01-29T01:38:30.503Z,16.89
2019-01-29T01:39:31.923Z,16.88
2019-01-29T01:40:33.041Z,16.88
2019-01-29T01:41:34.258Z,16.89
2019-01-29T01:42:35.371Z,16.88
2019-01-29T01:43:36.484Z,16.87
2019-01-29T01:44:37.642Z,16.87
2019-01-29T01:45:38.752Z,16.88
2019-01-29T01:46:39.862Z,16.88
2019-01-29T01:47:40.968Z,16.88
2019-01-29T01:48:42.083Z,16.88
2019-01-29T01:49:43.209Z,16.87
2019-01-29T01:50:44.320Z,16.88
2019-01-29T01:51:45.431Z,16.87
2019-01-29T01:52:46.544Z,16.87
2019-01-29T01:53:47.660Z,16.87
2019-01-29T01:54:48.789Z,16.86
2019-01-29T01:55:50.007Z,16.86
2019-01-29T01:56:51.124Z,16.87
2019-01-29T01:57:52.236Z,16.86
2019-01-29T01:58:53.349Z,16.86
2019-01-29T01:59:54.501Z,16.87
2019-01-29T02:00:55.688Z,16.86
2019-01-29T02:01:56.814Z,16.85
2019-01-29T02:02:57.923Z,16.85
2019-01-29T02:03:59.087Z,16.86
2019-01-29T02:05:00.368Z,16.86
2019-01-29T02:06:01.475Z,16.86
2019-01-29T02:07:02.584Z,16.86
2019-01-29T02:08:03.729Z,16.86
2019-01-29T02:09:07.212Z,16.87
2019-01-29T02:10:12.035Z,16.87
2019-01-29T02:11:13.150Z,16.87
2019-01-29T02:12:14.561Z,16.85
2019-01-29T02:13:15.673Z,16.86
2019-01-29T02:14:16.844Z,16.86
2019-01-29T02:15:18.133Z,16.85
2019-01-29T02:16:19.251Z,16.85
2019-01-29T02:17:20.367Z,16.85
2019-01-29T02:18:21.576Z,16.86
2019-01-29T02:19:22.696Z,16.85
2019-01-29T02:20:23.951Z,16.85
2019-01-29T02:21:25.070Z,16.84
2019-01-29T02:22:26.181Z,16.84
2019-01-29T02:23:27.295Z,16.85
2019-01-29T02:24:28.667Z,16.84
2019-01-29T02:25:29.899Z,16.82
2019-01-29T02:26:31.020Z,16.83
2019-01-29T02:27:32.128Z,16.82
2019-01-29T02:28:33.245Z,16.83
2019-01-29T02:29:34.361Z,16.83
2019-01-29T02:30:35.592Z,16.82
2019-01-29T02:31:36.711Z,16.82
2019-01-29T02:32:37.924Z,16.83
2019-01-29T02:33:39.037Z,16.83
2019-01-29T02:34:40.152Z,16.83
2019-01-29T02:35:41.308Z,16.84
2019-01-29T02:36:42.419Z,16.83
2019-01-29T02:37:43.632Z,16.84
2019-01-29T02:38:44.762Z,16.84
2019-01-29T02:39:45.875Z,16.84
2019-01-29T02:40:47.013Z,16.82
2019-01-29T02:41:48.215Z,16.82
2019-01-29T02:42:49.433Z,16.82
2019-01-29T02:43:50.544Z,16.82
2019-01-29T02:44:51.655Z,16.82
2019-01-29T02:45:52.814Z,16.82
2019-01-29T02:46:53.928Z,16.82
2019-01-29T02:47:55.043Z,16.82
2019-01-29T02:48:56.155Z,16.81
2019-01-29T02:49:57.268Z,16.81
2019-01-29T02:50:58.420Z,16.82
2019-01-29T02:51:59.570Z,16.81
2019-01-29T02:53:00.690Z,16.82
2019-01-29T02:54:01.896Z,16.82
2019-01-29T02:55:05.313Z,16.82
2019-01-29T02:56:06.467Z,16.82
2019-01-29T02:57:07.582Z,16.82
2019-01-29T02:58:08.793Z,16.82
2019-01-29T02:59:10.023Z,16.83
2019-01-29T03:00:17.512Z,16.82
2019-01-29T03:01:18.673Z,16.82
2019-01-29T03:02:19.785Z,16.82
2019-01-29T03:03:20.917Z,16.82
2019-01-29T03:04:22.053Z,16.82
2019-01-29T03:05:23.672Z,16.83
2019-01-29T03:06:24.974Z,16.82
2019-01-29T03:07:26.193Z,16.82
2019-01-29T03:08:27.302Z,16.82
2019-01-29T03:09:28.421Z,16.82
2019-01-29T03:10:29.634Z,16.82
2019-01-29T03:11:30.948Z,16.81
2019-01-29T03:12:32.165Z,16.82
2019-01-29T03:13:33.390Z,16.81
2019-01-29T03:14:34.503Z,16.82
2019-01-29T03:15:35.716Z,16.82
2019-01-29T03:16:36.974Z,16.82
2019-01-29T03:17:38.081Z,16.82
2019-01-29T03:18:39.241Z,16.82
2019-01-29T03:19:40.356Z,16.81
2019-01-29T03:20:41.470Z,16.82
2019-01-29T03:21:42.602Z,16.81
2019-01-29T03:22:43.714Z,16.81
2019-01-29T03:23:44.827Z,16.81
2019-01-29T03:24:46.047Z,16.81
2019-01-29T03:25:47.165Z,16.81
2019-01-29T03:26:48.568Z,16.81
2019-01-29T03:27:49.780Z,16.81
2019-01-29T03:28:50.892Z,16.82
2019-01-29T03:29:52.118Z,16.81
2019-01-29T03:30:53.338Z,16.81
2019-01-29T03:31:54.462Z,16.80
2019-01-29T03:32:55.617Z,16.81
2019-01-29T03:33:56.790Z,16.81
2019-01-29T03:34:57.905Z,16.82
2019-01-29T03:35:59.013Z,16.81
2019-01-29T03:37:00.319Z,16.82
2019-01-29T03:38:01.438Z,16.82
2019-01-29T03:39:05.649Z,16.83
2019-01-29T03:40:12.733Z,16.82
2019-01-29T03:41:13.845Z,16.81
2019-01-29T03:42:15.400Z,16.82
2019-01-29T03:43:16.617Z,16.82
2019-01-29T03:44:17.732Z,16.81
2019-01-29T03:45:18.841Z,16.82
2019-01-29T03:46:19.956Z,16.82
2019-01-29T03:47:21.087Z,16.80
2019-01-29T03:48:22.204Z,16.82
2019-01-29T03:49:23.421Z,16.81
2019-01-29T03:50:24.539Z,16.81
2019-01-29T03:51:25.765Z,16.81
2019-01-29T03:52:26.881Z,16.80
2019-01-29T03:53:37.521Z,16.82
2019-01-29T03:54:31.028Z,16.80
2019-01-29T03:55:32.144Z,16.81
2019-01-29T03:56:33.360Z,16.80
2019-01-29T03:57:34.634Z,16.80
2019-01-29T03:58:36.685Z,16.80
2019-01-29T03:59:37.817Z,16.80
2019-01-29T04:00:38.942Z,16.81
2019-01-29T04:01:40.110Z,16.79
2019-01-29T04:02:41.229Z,16.80
2019-01-29T04:03:42.341Z,16.81
2019-01-29T04:04:43.474Z,16.80
2019-01-29T04:05:44.585Z,16.80
2019-01-29T04:06:45.701Z,16.81
2019-01-29T04:07:47.019Z,16.80
2019-01-29T04:08:48.232Z,16.76
2019-01-29T04:09:49.368Z,16.81
2019-01-29T04:10:50.573Z,16.80
2019-01-29T04:11:51.689Z,16.81
2019-01-29T04:12:52.913Z,16.81
2019-01-29T04:13:54.026Z,16.81
2019-01-29T04:14:55.237Z,16.81
2019-01-29T04:15:56.358Z,16.81
2019-01-29T04:16:57.478Z,16.81
2019-01-29T04:17:58.730Z,16.81
2019-01-29T04:18:59.836Z,16.80
2019-01-29T04:20:01.246Z,16.81
2019-01-29T04:21:02.357Z,16.81
2019-01-29T04:22:03.464Z,16.81
2019-01-29T04:23:04.601Z,16.81
2019-01-29T04:24:05.712Z,16.81
2019-01-29T04:25:07.623Z,16.81
2019-01-29T04:26:08.837Z,16.81
2019-01-29T04:27:09.944Z,16.81
2019-01-29T04:28:11.096Z,16.82
2019-01-29T04:29:12.485Z,16.80
2019-01-29T04:30:15.898Z,16.80
2019-01-29T04:31:17.116Z,16.81
2019-01-29T04:32:18.333Z,16.81
2019-01-29T04:33:19.590Z,16.81
2019-01-29T04:34:20.698Z,16.83
2019-01-29T04:35:21.817Z,16.81
2019-01-29T04:36:22.925Z,16.81
2019-01-29T04:37:24.041Z,16.81
2019-01-29T04:38:25.270Z,16.81
2019-01-29T04:39:26.488Z,16.82
2019-01-29T04:40:27.605Z,16.80
2019-01-29T04:41:28.725Z,16.81
2019-01-29T04:42:29.946Z,16.81
2019-01-29T04:43:31.210Z,16.82
2019-01-29T04:44:32.324Z,16.81
2019-01-29T04:45:33.438Z,16.81
2019-01-29T04:46:34.561Z,16.82
2019-01-29T04:47:35.665Z,16.81
2019-01-29T04:48:36.817Z,16.81
2019-01-29T04:49:38.032Z,16.82
2019-01-29T04:50:39.144Z,16.82
2019-01-29T04:51:40.658Z,16.82
2019-01-29T04:52:41.872Z,16.81
2019-01-29T04:53:43.027Z,16.81
2019-01-29T04:54:44.139Z,16.80
2019-01-29T04:55:45.258Z,16.79
2019-01-29T04:56:46.481Z,16.79
2019-01-29T04:57:47.590Z,16.79
2019-01-29T04:58:48.718Z,16.78
2019-01-29T04:59:49.828Z,16.77
2019-01-29T05:00:51.506Z,16.76
2019-01-29T05:01:52.614Z,16.76
2019-01-29T05:02:53.724Z,16.74
2019-01-29T05:03:54.870Z,16.74
2019-01-29T05:04:55.994Z,16.73
2019-01-29T05:05:57.100Z,16.73
2019-01-29T05:06:58.216Z,16.72
2019-01-29T05:07:59.325Z,16.71
2019-01-29T05:09:00.586Z,16.73
2019-01-29T05:10:01.990Z,16.72
2019-01-29T05:11:03.100Z,16.72
2019-01-29T05:12:04.210Z,16.71
2019-01-29T05:13:05.329Z,16.72
2019-01-29T05:14:06.475Z,16.71
2019-01-29T05:15:10.683Z,16.71
2019-01-29T05:16:11.802Z,16.71
2019-01-29T05:17:12.912Z,16.70
2019-01-29T05:18:14.523Z,16.71
2019-01-29T05:19:15.652Z,16.70
2019-01-29T05:20:18.665Z,16.70
2019-01-29T05:21:19.876Z,16.70
2019-01-29T05:22:20.987Z,16.71
2019-01-29T05:23:22.163Z,16.72
2019-01-29T05:24:24.841Z,16.71
2019-01-29T05:25:26.258Z,16.72
2019-01-29T05:26:27.367Z,16.72
2019-01-29T05:27:28.476Z,16.72
2019-01-29T05:28:29.649Z,16.72
2019-01-29T05:29:31.020Z,16.74
2019-01-29T05:30:32.231Z,16.72
2019-01-29T05:31:33.873Z,16.74
2019-01-29T05:32:34.982Z,16.73
2019-01-29T05:33:36.101Z,16.74
2019-01-29T05:34:37.408Z,16.75
2019-01-29T05:35:38.516Z,16.73
2019-01-29T05:36:39.928Z,16.73
2019-01-29T05:37:41.140Z,16.74
2019-01-29T05:38:42.262Z,16.74
2019-01-29T05:39:43.587Z,16.73
2019-01-29T05:40:45.201Z,16.74
2019-01-29T05:41:46.319Z,16.73
2019-01-29T05:42:47.529Z,16.74
2019-01-29T05:43:48.644Z,16.75
2019-01-29T05:44:49.798Z,16.75
2019-01-29T05:45:51.012Z,16.74
2019-01-29T05:46:52.123Z,16.74
2019-01-29T05:47:53.236Z,16.74
2019-01-29T05:48:54.356Z,16.75
2019-01-29T05:49:55.580Z,16.73
2019-01-29T05:50:56.700Z,16.73
2019-01-29T05:51:57.818Z,16.74
2019-01-29T05:52:58.959Z,16.74
2019-01-29T05:54:00.073Z,16.75
2019-01-29T05:55:01.344Z,16.75
2019-01-29T05:56:02.751Z,16.75
2019-01-29T05:57:03.849Z,16.74
2019-01-29T05:58:04.963Z,16.75
2019-01-29T05:59:06.076Z,16.75
2019-01-29T06:00:14.468Z,16.75
2019-01-29T06:01:15.594Z,16.74
2019-01-29T06:02:16.716Z,16.75
2019-01-29T06:03:17.832Z,16.74
2019-01-29T06:04:18.952Z,16.75
2019-01-29T06:05:20.391Z,16.76
2019-01-29T06:06:21.511Z,16.76
2019-01-29T06:07:22.612Z,16.76
2019-01-29T06:08:23.724Z,16.77
2019-01-29T06:09:24.936Z,16.78
2019-01-29T06:10:26.062Z,16.80
2019-01-29T06:11:27.275Z,16.83
2019-01-29T06:12:28.385Z,16.83
2019-01-29T06:13:29.496Z,16.87
2019-01-29T06:14:30.610Z,16.91
2019-01-29T06:15:31.731Z,16.93
2019-01-29T06:16:32.849Z,16.98
2019-01-29T06:17:34.060Z,17.01
2019-01-29T06:18:35.272Z,17.05
2019-01-29T06:19:36.383Z,17.08
2019-01-29T06:20:37.637Z,17.12
2019-01-29T06:21:38.753Z,17.16
2019-01-29T06:22:39.872Z,17.21
2019-01-29T06:23:40.985Z,17.25
2019-01-29T06:24:42.095Z,17.29
2019-01-29T06:25:43.250Z,17.34
2019-01-29T06:26:44.365Z,17.39
2019-01-29T06:27:45.473Z,17.42
2019-01-29T06:28:46.584Z,17.47
2019-01-29T06:29:47.809Z,17.52
2019-01-29T06:30:48.934Z,17.57
2019-01-29T06:31:50.153Z,17.60
2019-01-29T06:32:51.466Z,17.66
2019-01-29T06:33:53.093Z,17.70
2019-01-29T06:34:54.196Z,17.75
2019-01-29T06:35:55.322Z,17.79
2019-01-29T06:36:56.450Z,17.83
2019-01-29T06:37:57.551Z,17.88
2019-01-29T06:38:58.662Z,17.92
2019-01-29T06:39:59.772Z,17.95
2019-01-29T06:41:00.900Z,18.00
2019-01-29T06:42:02.017Z,18.03
2019-01-29T06:43:03.129Z,18.05
2019-01-29T06:44:04.244Z,18.10
2019-01-29T06:45:11.273Z,18.13
2019-01-29T06:46:12.400Z,18.17
2019-01-29T06:47:13.520Z,18.19
2019-01-29T06:48:14.728Z,18.23
2019-01-29T06:49:15.845Z,18.25
2019-01-29T06:50:23.366Z,18.26
2019-01-29T06:51:24.585Z,18.29
2019-01-29T06:52:25.701Z,18.31
2019-01-29T06:53:26.817Z,18.33
2019-01-29T06:54:33.932Z,18.36
2019-01-29T06:55:30.952Z,18.36
2019-01-29T06:56:32.094Z,18.39
2019-01-29T06:57:33.206Z,18.40
2019-01-29T06:58:34.425Z,18.42
2019-01-29T06:59:35.538Z,18.44
2019-01-29T07:00:36.655Z,18.44
2019-01-29T07:01:37.935Z,18.46
2019-01-29T07:02:39.156Z,18.47
2019-01-29T07:03:40.272Z,18.48
2019-01-29T07:04:41.666Z,18.48
2019-01-29T07:05:42.784Z,18.49
2019-01-29T07:06:43.936Z,18.49
2019-01-29T07:07:45.052Z,18.51
2019-01-29T07:08:46.170Z,18.51
2019-01-29T07:09:47.780Z,18.52
2019-01-29T07:10:48.889Z,18.53
2019-01-29T07:11:53.648Z,18.53
2019-01-29T07:12:54.863Z,18.53
2019-01-29T07:13:55.976Z,18.54
2019-01-29T07:14:57.100Z,18.55
2019-01-29T07:16:00.112Z,18.30
2019-01-29T07:17:05.673Z,18.58
2019-01-29T07:18:09.556Z,18.59
2019-01-29T07:19:15.145Z,18.59
2019-01-29T07:20:16.657Z,18.60
2019-01-29T07:21:17.880Z,18.61
2019-01-29T07:22:19.134Z,18.62
2019-01-29T07:23:20.400Z,18.62
2019-01-29T07:24:21.517Z,18.62
2019-01-29T07:25:22.733Z,18.63
2019-01-29T07:26:23.843Z,18.63
2019-01-29T07:27:24.987Z,18.63
2019-01-29T07:28:26.096Z,18.64
2019-01-29T07:29:27.212Z,18.64
2019-01-29T07:30:28.429Z,18.64
2019-01-29T07:31:29.536Z,18.64
2019-01-29T07:32:30.792Z,18.65
2019-01-29T07:33:31.900Z,18.66
2019-01-29T07:34:33.020Z,18.65
2019-01-29T07:35:34.787Z,18.65
2019-01-29T07:36:35.904Z,18.64
2019-01-29T07:37:37.164Z,18.64
2019-01-29T07:38:38.278Z,18.65
2019-01-29T07:39:39.393Z,18.65
2019-01-29T07:40:40.508Z,18.65
2019-01-29T07:41:41.620Z,18.65
2019-01-29T07:42:42.939Z,18.65
2019-01-29T07:43:44.144Z,18.65
2019-01-29T07:44:45.253Z,18.66
2019-01-29T07:45:46.461Z,18.66
2019-01-29T07:46:47.575Z,18.66
2019-01-29T07:47:48.729Z,18.67
2019-01-29T07:48:49.844Z,18.67
2019-01-29T07:49:50.957Z,18.66
2019-01-29T07:50:52.069Z,18.67
2019-01-29T07:51:53.180Z,18.67
2019-01-29T07:52:54.304Z,18.67
2019-01-29T07:53:55.418Z,18.67
2019-01-29T07:54:56.527Z,18.68
2019-01-29T07:55:57.639Z,18.68
2019-01-29T07:56:58.755Z,18.68
2019-01-29T07:58:00.044Z,18.68
2019-01-29T07:59:01.252Z,18.70
2019-01-29T08:00:11.422Z,18.69
2019-01-29T08:01:12.635Z,18.69
2019-01-29T08:02:13.788Z,18.68
2019-01-29T08:03:15.021Z,18.68
2019-01-29T08:04:16.134Z,18.67
2019-01-29T08:05:17.253Z,18.66
2019-01-29T08:06:18.365Z,18.65
2019-01-29T08:07:19.583Z,18.66
2019-01-29T08:08:20.831Z,18.65
2019-01-29T08:09:21.949Z,18.66
2019-01-29T08:10:24.666Z,18.64
2019-01-29T08:11:25.976Z,18.64
2019-01-29T08:12:27.188Z,18.62
2019-01-29T08:13:28.343Z,18.62
2019-01-29T08:14:29.552Z,18.62
2019-01-29T08:15:30.661Z,18.62
2019-01-29T08:16:31.773Z,18.62
2019-01-29T08:17:32.883Z,18.62
2019-01-29T08:18:34.008Z,18.62
2019-01-29T08:19:35.124Z,18.62
2019-01-29T08:20:37.528Z,18.62
2019-01-29T08:21:38.640Z,18.63
2019-01-29T08:22:39.756Z,18.64
2019-01-29T08:23:41.008Z,18.63
2019-01-29T08:24:42.124Z,18.63
2019-01-29T08:25:47.856Z,18.63
2019-01-29T08:26:46.360Z,18.63
2019-01-29T08:27:47.478Z,18.62
2019-01-29T08:28:48.708Z,18.62
2019-01-29T08:29:49.826Z,18.62
2019-01-29T08:30:50.936Z,18.61
2019-01-29T08:31:52.153Z,18.61
2019-01-29T08:32:53.268Z,18.61
2019-01-29T08:33:54.400Z,18.60
2019-01-29T08:34:55.516Z,18.60
2019-01-29T08:35:56.733Z,18.60
2019-01-29T08:36:58.012Z,18.61
2019-01-29T08:37:59.694Z,18.59
2019-01-29T08:39:00.828Z,18.59
2019-01-29T08:40:02.133Z,18.59
2019-01-29T08:41:04.529Z,18.59
2019-01-29T08:42:05.755Z,18.59
2019-01-29T08:43:06.869Z,18.58
2019-01-29T08:44:07.992Z,18.58
2019-01-29T08:45:14.609Z,18.58
2019-01-29T08:46:15.717Z,18.58
2019-01-29T08:47:16.937Z,18.58
2019-01-29T08:48:18.048Z,18.57
2019-01-29T08:49:19.199Z,18.56
2019-01-29T08:50:24.914Z,18.56
2019-01-29T08:51:26.024Z,18.55
2019-01-29T08:52:27.142Z,18.55
2019-01-29T08:53:28.265Z,18.56
2019-01-29T08:54:29.532Z,18.55
2019-01-29T08:55:30.749Z,18.55
2019-01-29T08:56:31.860Z,18.54
2019-01-29T08:57:32.978Z,18.53
2019-01-29T08:58:34.204Z,18.53
2019-01-29T08:59:35.361Z,18.53
2019-01-29T09:00:36.473Z,18.53
2019-01-29T09:01:37.589Z,18.52
2019-01-29T09:02:38.713Z,18.52
2019-01-29T09:03:39.836Z,18.51
2019-01-29T09:04:40.967Z,18.51
2019-01-29T09:05:42.088Z,18.51
2019-01-29T09:06:43.204Z,18.50
2019-01-29T09:07:44.420Z,18.48
2019-01-29T09:08:46.202Z,18.50
2019-01-29T09:09:47.332Z,18.49
2019-01-29T09:10:48.442Z,18.49
2019-01-29T09:11:49.550Z,18.48
2019-01-29T09:12:50.660Z,18.48
2019-01-29T09:13:51.775Z,18.48
2019-01-29T09:14:52.928Z,18.46
2019-01-29T09:15:54.036Z,18.48
2019-01-29T09:16:55.261Z,18.45
2019-01-29T09:17:56.375Z,18.44
2019-01-29T09:18:57.490Z,18.46
2019-01-29T09:19:58.612Z,18.44
2019-01-29T09:20:59.723Z,18.45
2019-01-29T09:22:00.938Z,18.43
2019-01-29T09:23:02.152Z,18.44
2019-01-29T09:24:03.360Z,18.43
2019-01-29T09:25:08.112Z,18.42
2019-01-29T09:26:09.221Z,18.43
2019-01-29T09:27:10.334Z,18.41
2019-01-29T09:28:11.457Z,18.41
2019-01-29T09:29:17.665Z,18.40
2019-01-29T09:30:17.198Z,18.41
2019-01-29T09:31:18.314Z,18.39
2019-01-29T09:32:19.420Z,18.40
2019-01-29T09:33:20.548Z,18.39
2019-01-29T09:34:21.649Z,18.38
2019-01-29T09:35:22.800Z,18.39
2019-01-29T09:36:23.913Z,18.38
2019-01-29T09:37:25.020Z,18.38
2019-01-29T09:38:26.238Z,18.37
2019-01-29T09:39:27.353Z,18.39
2019-01-29T09:40:28.580Z,18.38
2019-01-29T09:41:29.796Z,18.38
2019-01-29T09:42:31.013Z,18.36
2019-01-29T09:43:32.123Z,18.36
2019-01-29T09:44:33.228Z,18.35
2019-01-29T09:45:34.508Z,18.36
2019-01-29T09:46:35.720Z,18.36
2019-01-29T09:47:36.835Z,18.36
2019-01-29T09:48:37.948Z,18.36
2019-01-29T09:49:39.171Z,18.36
2019-01-29T09:50:40.294Z,18.36
2019-01-29T09:51:41.511Z,18.36
2019-01-29T09:52:42.726Z,18.35
2019-01-29T09:53:43.836Z,18.36
2019-01-29T09:54:44.943Z,18.36
2019-01-29T09:55:46.099Z,18.36
2019-01-29T09:56:47.313Z,18.37
2019-01-29T09:57:48.721Z,18.38
2019-01-29T09:58:49.850Z,18.39
2019-01-29T09:59:50.945Z,18.39
2019-01-29T10:00:52.073Z,18.39
2019-01-29T10:01:53.294Z,18.40
2019-01-29T10:02:54.416Z,18.38
2019-01-29T10:03:55.534Z,18.38
2019-01-29T10:04:56.646Z,18.38
2019-01-29T10:05:57.885Z,18.38
2019-01-29T10:06:59.100Z,18.36
2019-01-29T10:08:00.210Z,18.36
2019-01-29T10:09:01.428Z,18.36
2019-01-29T10:10:05.346Z,18.36
2019-01-29T10:11:06.572Z,18.36
2019-01-29T10:12:07.685Z,18.35
2019-01-29T10:13:08.802Z,18.34
2019-01-29T10:14:10.012Z,18.34
2019-01-29T10:15:17.572Z,18.33
2019-01-29T10:16:18.702Z,18.33
2019-01-29T10:17:20.124Z,18.33
2019-01-29T10:18:21.237Z,18.33
2019-01-29T10:19:22.352Z,18.32
2019-01-29T10:20:24.068Z,18.33
2019-01-29T10:21:25.224Z,18.32
2019-01-29T10:22:26.443Z,18.33
2019-01-29T10:23:27.552Z,18.32
2019-01-29T10:24:28.776Z,18.31
2019-01-29T10:25:37.422Z,18.31
2019-01-29T10:26:33.064Z,18.31
2019-01-29T10:27:34.176Z,18.31
2019-01-29T10:28:35.294Z,18.31
2019-01-29T10:29:36.410Z,18.31
2019-01-29T10:30:37.624Z,18.32
2019-01-29T10:31:38.750Z,18.31
2019-01-29T10:32:39.856Z,18.31
2019-01-29T10:33:41.081Z,18.30
2019-01-29T10:34:42.201Z,18.31
2019-01-29T10:35:43.418Z,18.31
2019-01-29T10:36:44.665Z,18.32
2019-01-29T10:37:45.776Z,18.32
2019-01-29T10:38:46.887Z,18.32
2019-01-29T10:39:48.001Z,18.32
2019-01-29T10:40:49.121Z,18.32
2019-01-29T10:41:50.549Z,18.31
2019-01-29T10:42:51.964Z,18.31
2019-01-29T10:43:53.077Z,18.32
2019-01-29T10:44:54.192Z,18.32
2019-01-29T10:45:55.310Z,18.30
2019-01-29T10:46:56.451Z,18.30
2019-01-29T10:47:57.563Z,18.31
2019-01-29T10:48:58.680Z,18.31
2019-01-29T10:49:59.799Z,18.30
2019-01-29T10:51:00.990Z,18.30
2019-01-29T10:52:02.548Z,18.30
2019-01-29T10:53:03.652Z,18.30
2019-01-29T10:54:05.060Z,18.31
2019-01-29T10:55:07.588Z,18.31
2019-01-29T10:56:08.688Z,18.31
2019-01-29T10:57:10.189Z,18.31
2019-01-29T10:58:11.377Z,18.30
2019-01-29T10:59:12.694Z,18.30
2019-01-29T11:00:16.406Z,18.31
2019-01-29T11:01:17.512Z,18.31
2019-01-29T11:02:18.767Z,18.31
2019-01-29T11:03:19.893Z,18.32
2019-01-29T11:04:21.008Z,18.31
2019-01-29T11:05:22.320Z,18.30
2019-01-29T11:06:23.548Z,18.31
2019-01-29T11:07:24.696Z,18.30
2019-01-29T11:08:25.816Z,18.30
2019-01-29T11:09:26.927Z,18.29
2019-01-29T11:10:28.149Z,18.30
2019-01-29T11:11:29.270Z,18.29
2019-01-29T11:12:30.493Z,18.28
2019-01-29T11:13:31.615Z,18.29
2019-01-29T11:14:32.726Z,18.29
2019-01-29T11:15:36.240Z,18.27
2019-01-29T11:16:37.347Z,18.28
2019-01-29T11:17:38.497Z,18.27
2019-01-29T11:18:39.712Z,18.28
2019-01-29T11:19:40.824Z,18.28
2019-01-29T11:20:41.938Z,18.27
2019-01-29T11:21:43.051Z,18.27
2019-01-29T11:22:44.196Z,18.26
2019-01-29T11:23:45.312Z,18.26
2019-01-29T11:24:46.438Z,18.25
2019-01-29T11:25:55.401Z,18.25
2019-01-29T11:26:50.553Z,18.26
2019-01-29T11:27:51.707Z,18.25
2019-01-29T11:28:52.816Z,18.25
2019-01-29T11:29:53.934Z,18.25
2019-01-29T11:30:55.144Z,18.24
2019-01-29T11:31:56.255Z,18.23
2019-01-29T11:32:57.411Z,18.24
2019-01-29T11:33:58.520Z,18.23
2019-01-29T11:34:59.627Z,18.23
2019-01-29T11:36:00.740Z,18.22
2019-01-29T11:37:01.853Z,18.21
2019-01-29T11:38:03.806Z,18.21
2019-01-29T11:39:07.122Z,18.21
2019-01-29T11:40:17.946Z,18.21
2019-01-29T11:41:19.847Z,18.20
2019-01-29T11:42:21.083Z,18.20
2019-01-29T11:43:22.208Z,18.18
2019-01-29T11:44:23.524Z,18.20
2019-01-29T11:45:30.167Z,18.18
2019-01-29T11:46:31.275Z,18.19
2019-01-29T11:47:32.384Z,18.18
2019-01-29T11:48:33.617Z,18.18
2019-01-29T11:49:34.727Z,18.18
2019-01-29T11:50:35.940Z,18.17
2019-01-29T11:51:37.053Z,18.17
2019-01-29T11:52:38.268Z,18.16
2019-01-29T11:53:39.505Z,18.15
2019-01-29T11:54:40.619Z,18.17
2019-01-29T11:55:41.828Z,18.18
2019-01-29T11:56:42.944Z,18.17
2019-01-29T11:57:44.057Z,18.18
2019-01-29T11:58:45.334Z,18.18
2019-01-29T11:59:46.644Z,18.18
2019-01-29T12:00:55.508Z,18.18
2019-01-29T12:01:56.627Z,18.19
2019-01-29T12:02:57.948Z,18.19
2019-01-29T12:03:59.088Z,18.19
2019-01-29T12:05:00.206Z,18.17
2019-01-29T12:06:01.324Z,18.19
2019-01-29T12:07:02.634Z,18.18
2019-01-29T12:08:04.851Z,18.17
2019-01-29T12:09:07.073Z,18.18
2019-01-29T12:10:10.192Z,18.18
2019-01-29T12:11:11.304Z,18.18
2019-01-29T12:12:12.416Z,18.18
2019-01-29T12:13:13.535Z,18.17
2019-01-29T12:14:14.795Z,18.17
2019-01-29T12:15:19.121Z,18.16
2019-01-29T12:16:20.235Z,18.16
2019-01-29T12:17:21.348Z,18.14
2019-01-29T12:18:22.556Z,18.15
2019-01-29T12:19:23.688Z,18.15
2019-01-29T12:20:24.799Z,18.14
2019-01-29T12:21:26.016Z,18.14
2019-01-29T12:22:27.128Z,18.14
2019-01-29T12:23:28.232Z,18.15
2019-01-29T12:24:29.363Z,18.14
2019-01-29T12:25:30.467Z,18.15
2019-01-29T12:26:31.577Z,18.14
2019-01-29T12:27:32.687Z,18.14
2019-01-29T12:28:33.800Z,18.14
2019-01-29T12:29:35.076Z,18.15
2019-01-29T12:30:36.292Z,18.14
2019-01-29T12:31:37.403Z,18.14
2019-01-29T12:32:38.514Z,18.13
2019-01-29T12:33:39.632Z,18.14
2019-01-29T12:34:40.868Z,18.13
2019-01-29T12:35:42.085Z,18.14
2019-01-29T12:36:43.197Z,18.13
2019-01-29T12:37:44.311Z,18.14
2019-01-29T12:38:45.432Z,18.12
2019-01-29T12:39:46.694Z,18.14
2019-01-29T12:40:47.799Z,18.13
2019-01-29T12:41:49.018Z,18.13
2019-01-29T12:42:50.124Z,18.13
2019-01-29T12:43:51.239Z,18.14
2019-01-29T12:44:52.400Z,18.13
2019-01-29T12:45:53.613Z,18.13
2019-01-29T12:46:54.727Z,18.13
2019-01-29T12:47:55.840Z,18.13
2019-01-29T12:48:56.953Z,18.14
2019-01-29T12:49:58.077Z,18.13
2019-01-29T12:50:59.595Z,18.13
2019-01-29T12:52:01.913Z,18.13
2019-01-29T12:53:08.188Z,18.13
2019-01-29T12:54:09.296Z,18.13
2019-01-29T12:55:10.521Z,18.12
2019-01-29T12:56:11.627Z,18.11
2019-01-29T12:57:12.740Z,18.12
2019-01-29T12:58:14.058Z,18.11
2019-01-29T12:59:15.163Z,18.10
2019-01-29T13:00:17.914Z,18.10
2019-01-29T13:01:19.024Z,18.10
2019-01-29T13:02:20.245Z,18.09
2019-01-29T13:03:21.482Z,18.09
2019-01-29T13:04:22.619Z,18.09
2019-01-29T13:05:23.762Z,18.09
2019-01-29T13:06:24.889Z,18.08
2019-01-29T13:07:26.003Z,18.09
2019-01-29T13:08:27.214Z,18.08
2019-01-29T13:09:28.322Z,18.08
2019-01-29T13:10:29.568Z,18.08